Time;durP1;ratioP1;P1;durP2;ratioP2;P2;SDS_P1;SDS_P2;PMS_P1;PMS_P2;Temp;Humidity;BMP_temperature;BMP_pressure;BME280_temperature;BME280_humidity;BME280_pressure;Samples;Min_cycle;Max_cycle;Signal;HPM_P1;HPM_P2
2021/11/01 00:01:21;;;;;;;2.37;0.80;;;;;;;;;;4517042;28;29120;-59
2021/11/01 00:03:31;;;;;;;1.55;0.70;;;;;;;;;;4536989;28;20149;-59
2021/11/01 00:05:42;;;;;;;2.33;0.88;;;;;;;;;;4519019;28;20156;-58
2021/11/01 00:07:53;;;;;;;2.43;0.70;;;;;;;;;;4519040;28;20046;-59
2021/11/01 00:10:05;;;;;;;2.15;0.75;;;;;;;;;;4534967;28;20064;-58
2021/11/01 00:12:15;;;;;;;2.70;0.80;;;;;;;;;;4518595;28;20073;-59
2021/11/01 00:14:27;;;;;;;2.57;0.83;;;;;;;;;;4517994;28;20121;-59
2021/11/01 00:16:38;;;;;;;1.55;0.50;;;;;;;;;;4534809;28;20025;-57
2021/11/01 00:18:48;;;;;;;1.47;0.60;;;;;;;;;;4535701;28;20036;-59
2021/11/01 00:20:59;;;;;;;2.47;0.77;;;;;;;;;;4535744;28;20041;-59
2021/11/01 00:23:09;;;;;;;2.33;0.77;;;;;;;;;;4536229;28;20029;-59
2021/11/01 00:25:21;;;;;;;1.97;0.83;;;;;;;;;;4535999;28;20457;-59
2021/11/01 00:27:31;;;;;;;2.50;0.70;;;;;;;;;;4535721;28;20737;-59
2021/11/01 00:29:42;;;;;;;2.47;0.63;;;;;;;;;;4536011;28;20142;-59
2021/11/01 00:31:53;;;;;;;2.80;0.77;;;;;;;;;;4535369;28;20037;-59
2021/11/01 00:34:03;;;;;;;1.43;0.60;;;;;;;;;;4536060;28;20445;-59
2021/11/01 00:36:14;;;;;;;2.97;1.00;;;;;;;;;;4516662;28;20053;-59
2021/11/01 00:38:24;;;;;;;4.23;0.93;;;;;;;;;;4492415;28;20602;-60
2021/11/01 00:40:34;;;;;;;2.27;0.90;;;;;;;;;;4536402;28;20126;-59
2021/11/01 00:42:45;;;;;;;2.37;0.90;;;;;;;;;;4536536;28;20032;-58
2021/11/01 00:44:56;;;;;;;1.00;0.70;;;;;;;;;;4536488;28;20481;-59
2021/11/01 00:47:06;;;;;;;3.80;1.00;;;;;;;;;;4536663;28;20041;-60
2021/11/01 00:49:16;;;;;;;3.33;0.90;;;;;;;;;;4535556;28;20033;-59
2021/11/01 00:51:27;;;;;;;2.57;0.80;;;;;;;;;;4538455;28;20041;-59
2021/11/01 00:53:47;;;;;;;2.30;0.60;;;;;;;;;;4538560;28;20029;-58
2021/11/01 00:55:59;;;;;;;1.73;0.70;;;;;;;;;;4539617;28;20036;-59
2021/11/01 00:58:09;;;;;;;2.13;0.63;;;;;;;;;;4538929;28;20576;-59
2021/11/01 01:00:22;;;;;;;2.37;0.97;;;;;;;;;;4538915;28;20503;-59
2021/11/01 01:02:32;;;;;;;1.90;0.70;;;;;;;;;;4520753;28;20772;-59
2021/11/01 01:04:43;;;;;;;4.65;1.05;;;;;;;;;;4536526;28;20029;-59
2021/11/01 01:06:53;;;;;;;2.57;0.83;;;;;;;;;;4539253;28;28480;-59
2021/11/01 01:09:04;;;;;;;4.53;1.20;;;;;;;;;;4520587;28;20037;-59
2021/11/01 01:11:14;;;;;;;2.53;1.00;;;;;;;;;;4520892;28;20021;-59
2021/11/01 01:13:28;;;;;;;2.87;0.90;;;;;;;;;;4538462;28;20846;-59
2021/11/01 01:15:48;;;;;;;2.15;0.80;;;;;;;;;;4520602;28;20033;-59
2021/11/01 01:18:06;;;;;;;2.70;0.88;;;;;;;;;;4538115;28;20037;-58
2021/11/01 01:20:19;;;;;;;3.03;0.70;;;;;;;;;;4520866;28;20545;-59
2021/11/01 01:22:29;;;;;;;3.92;1.05;;;;;;;;;;4537626;28;20037;-58
2021/11/01 01:24:40;;;;;;;3.70;1.00;;;;;;;;;;4519496;28;20029;-59
2021/11/01 01:26:50;;;;;;;2.63;1.03;;;;;;;;;;4538458;28;20037;-59
2021/11/01 01:29:01;;;;;;;4.43;1.00;;;;;;;;;;4539430;28;20044;-59
2021/11/01 01:31:11;;;;;;;3.33;0.93;;;;;;;;;;4539153;28;20409;-59
2021/11/01 01:33:22;;;;;;;2.63;0.80;;;;;;;;;;4538418;28;20071;-59
2021/11/01 01:35:34;;;;;;;4.13;0.87;;;;;;;;;;4520081;28;20355;-59
2021/11/01 01:37:44;;;;;;;3.08;0.93;;;;;;;;;;4538521;28;21177;-59
2021/11/01 01:39:55;;;;;;;3.40;0.93;;;;;;;;;;4537974;28;20082;-59
2021/11/01 01:42:05;;;;;;;3.63;0.90;;;;;;;;;;4537170;28;31245;-59
2021/11/01 01:44:16;;;;;;;1.30;0.67;;;;;;;;;;4537458;28;20029;-59
2021/11/01 01:46:28;;;;;;;2.23;0.80;;;;;;;;;;4538132;28;20087;-59
2021/11/01 01:48:39;;;;;;;3.40;0.90;;;;;;;;;;4536294;28;20079;-59
2021/11/01 01:50:50;;;;;;;2.38;0.70;;;;;;;;;;4520872;28;20025;-59
2021/11/01 01:53:00;;;;;;;3.53;1.07;;;;;;;;;;4538010;28;20049;-59
2021/11/01 01:55:13;;;;;;;2.77;0.80;;;;;;;;;;4539020;28;20120;-58
2021/11/01 01:57:24;;;;;;;3.33;0.90;;;;;;;;;;4520996;28;20022;-59
2021/11/01 01:59:35;;;;;;;2.35;0.88;;;;;;;;;;4538404;28;20033;-59
2021/11/01 02:01:47;;;;;;;3.42;0.90;;;;;;;;;;4519422;28;20061;-59
2021/11/01 02:03:58;;;;;;;4.53;1.20;;;;;;;;;;4521030;28;20044;-59
2021/11/01 02:06:13;;;;;;;2.80;1.00;;;;;;;;;;4520875;28;20037;-59
2021/11/01 02:08:24;;;;;;;2.80;0.82;;;;;;;;;;4520263;28;20640;-59
2021/11/01 02:10:43;;;;;;;3.47;0.93;;;;;;;;;;4520243;28;20025;-59
2021/11/01 02:12:57;;;;;;;2.88;0.98;;;;;;;;;;4520828;28;21052;-58
2021/11/01 02:15:15;;;;;;;3.65;1.20;;;;;;;;;;4537549;28;20043;-58
2021/11/01 02:17:30;;;;;;;3.67;1.15;;;;;;;;;;4519759;28;21255;-59
2021/11/01 02:19:48;;;;;;;3.38;1.15;;;;;;;;;;4520747;28;20049;-59
2021/11/01 02:22:01;;;;;;;2.80;1.00;;;;;;;;;;4537851;28;20025;-59
2021/11/01 02:25:09;;;;;;;5.10;1.15;;;;;;;;;;4537781;28;20040;-59
2021/11/01 02:27:20;;;;;;;2.88;1.02;;;;;;;;;;4447477;28;21001;-59
2021/11/01 02:29:30;;;;;;;3.28;1.02;;;;;;;;;;4431248;28;20032;-59
2021/11/01 02:31:41;;;;;;;2.87;1.00;;;;;;;;;;4447136;28;20055;-59
2021/11/01 02:33:52;;;;;;;3.90;0.93;;;;;;;;;;4447695;28;20147;-59
2021/11/01 02:36:03;;;;;;;3.70;0.90;;;;;;;;;;4434346;28;20066;-59
2021/11/01 02:38:15;;;;;;;4.45;1.30;;;;;;;;;;4447072;28;20512;-59
2021/11/01 02:40:27;;;;;;;3.35;1.00;;;;;;;;;;4446804;28;20042;-59
2021/11/01 02:42:38;;;;;;;2.13;0.90;;;;;;;;;;4430723;28;20040;-59
2021/11/01 02:44:51;;;;;;;3.50;0.98;;;;;;;;;;4447405;28;20058;-59
2021/11/01 02:47:02;;;;;;;3.08;1.00;;;;;;;;;;4446541;28;20637;-58
2021/11/01 02:49:12;;;;;;;2.63;0.90;;;;;;;;;;4447400;28;20031;-59
2021/11/01 02:51:24;;;;;;;2.73;1.10;;;;;;;;;;4446649;28;20571;-58
2021/11/01 02:53:35;;;;;;;5.57;1.15;;;;;;;;;;4446625;28;20682;-59
2021/11/01 02:55:45;;;;;;;4.10;1.10;;;;;;;;;;4447975;28;20028;-59
2021/11/01 02:57:56;;;;;;;5.47;1.30;;;;;;;;;;4478146;28;24908;-59
2021/11/01 03:00:07;;;;;;;3.07;1.00;;;;;;;;;;4535218;28;20037;-58
2021/11/01 03:02:18;;;;;;;3.40;1.38;;;;;;;;;;4536488;28;20036;-58
2021/11/01 03:04:28;;;;;;;2.83;0.97;;;;;;;;;;4537361;28;20037;-59
2021/11/01 03:06:39;;;;;;;4.60;1.03;;;;;;;;;;4537464;28;22235;-58
2021/11/01 03:08:51;;;;;;;4.05;1.20;;;;;;;;;;4519520;28;20048;-58
2021/11/01 03:11:02;;;;;;;2.72;0.95;;;;;;;;;;4535915;28;20037;-58
2021/11/01 03:13:13;;;;;;;3.25;0.90;;;;;;;;;;4536733;28;20519;-59
2021/11/01 03:15:24;;;;;;;4.60;1.13;;;;;;;;;;4536551;28;20036;-59
2021/11/01 03:17:39;;;;;;;;;;;;;;;;;;4538831;28;20100;-59
2021/11/01 03:19:58;;;;;;;3.38;0.98;;;;;;;;;;4536954;28;19980;-59
2021/11/01 03:22:09;;;;;;;4.35;1.08;;;;;;;;;;4519503;28;20714;-59
2021/11/01 03:24:19;;;;;;;3.75;0.82;;;;;;;;;;4519384;28;20088;-58
2021/11/01 03:26:30;;;;;;;3.97;1.17;;;;;;;;;;4519135;28;28114;-59
2021/11/01 03:28:40;;;;;;;3.30;0.82;;;;;;;;;;4519215;28;20037;-59
2021/11/01 03:30:53;;;;;;;2.83;1.00;;;;;;;;;;4536472;28;20104;-58
2021/11/01 03:33:04;;;;;;;3.05;0.82;;;;;;;;;;4518811;28;20853;-58
2021/11/01 03:35:15;;;;;;;3.10;0.80;;;;;;;;;;4536947;28;20029;-59
2021/11/01 03:37:26;;;;;;;2.45;0.70;;;;;;;;;;4537185;28;20033;-59
2021/11/01 03:39:39;;;;;;;2.97;0.85;;;;;;;;;;4519669;28;20038;-59
2021/11/01 03:41:50;;;;;;;3.17;0.85;;;;;;;;;;4519017;28;20037;-59
2021/11/01 03:44:06;;;;;;;;;;;;;;;;;;4519425;28;20105;-59
2021/11/01 03:46:23;;;;;;;2.15;0.75;;;;;;;;;;4519631;28;20480;-59
2021/11/01 03:48:38;;;;;;;2.40;0.88;;;;;;;;;;4502587;28;20038;-58
2021/11/01 03:51:03;;;;;;;2.92;0.77;;;;;;;;;;4536556;28;20724;-58
2021/11/01 03:53:13;;;;;;;2.38;0.70;;;;;;;;;;4535553;28;20041;-58
2021/11/01 03:55:30;;;;;;;1.73;0.70;;;;;;;;;;4517579;28;20565;-58
2021/11/01 03:57:42;;;;;;;3.28;1.00;;;;;;;;;;4519728;28;20592;-59
2021/11/01 03:59:54;;;;;;;3.00;0.85;;;;;;;;;;4518634;28;20040;-59
2021/11/01 04:02:09;;;;;;;2.42;0.70;;;;;;;;;;4496310;28;20039;-58
2021/11/01 04:04:19;;;;;;;2.47;0.80;;;;;;;;;;4519247;28;20272;-59
2021/11/01 04:06:30;;;;;;;1.67;0.63;;;;;;;;;;4535871;28;23946;-59
2021/11/01 04:08:41;;;;;;;3.80;0.90;;;;;;;;;;4536899;28;20044;-59
2021/11/01 04:10:51;;;;;;;2.20;0.73;;;;;;;;;;4535635;28;20512;-59
2021/11/01 04:13:01;;;;;;;1.67;0.70;;;;;;;;;;4536606;28;20697;-58
2021/11/01 04:15:17;;;;;;;1.53;0.80;;;;;;;;;;4517241;28;20039;-58
2021/11/01 04:17:45;;;;;;;2.28;0.70;;;;;;;;;;4535802;28;20041;-59
2021/11/01 04:20:01;;;;;;;1.40;0.70;;;;;;;;;;4535556;28;20509;-58
2021/11/01 04:22:12;;;;;;;1.38;0.63;;;;;;;;;;4535312;28;20559;-58
2021/11/01 04:24:24;;;;;;;2.13;0.80;;;;;;;;;;4535232;28;20040;-59
2021/11/01 04:26:35;;;;;;;1.75;0.82;;;;;;;;;;4521784;28;20042;-56
2021/11/01 04:28:46;;;;;;;1.15;0.75;;;;;;;;;;4539888;28;20033;-57
2021/11/01 04:31:06;;;;;;;0.57;0.50;;;;;;;;;;4521654;28;20121;-56
2021/11/01 04:33:20;;;;;;;1.02;0.57;;;;;;;;;;4540055;28;20045;-56
2021/11/01 04:35:38;;;;;;;2.22;0.63;;;;;;;;;;4540200;28;20096;-56
2021/11/01 04:37:52;;;;;;;1.52;0.68;;;;;;;;;;4540113;28;20028;-58
2021/11/01 04:40:16;;;;;;;3.25;0.82;;;;;;;;;;4538817;28;20045;-57
2021/11/01 04:54:46;;;;;;;2.47;0.70;;;;;;;;;;4537763;28;20744;-57
2021/11/01 04:56:56;;;;;;;2.60;1.00;;;;;;;;;;4538821;28;20037;-56
2021/11/01 04:59:07;;;;;;;2.43;0.70;;;;;;;;;;4539304;28;20284;-60
2021/11/01 05:01:26;;;;;;;2.70;0.80;;;;;;;;;;4521518;28;20030;-56
2021/11/01 05:03:41;;;;;;;2.50;0.73;;;;;;;;;;4539369;28;20256;-57
2021/11/01 05:05:51;;;;;;;2.38;0.63;;;;;;;;;;4539130;28;20124;-58
2021/11/01 05:08:03;;;;;;;2.53;0.70;;;;;;;;;;4539787;28;20064;-56
2021/11/01 05:10:28;;;;;;;1.83;0.73;;;;;;;;;;4538130;28;20099;-57
2021/11/01 05:12:43;;;;;;;3.45;0.88;;;;;;;;;;4538873;28;20596;-56
2021/11/01 05:15:12;;;;;;;3.50;0.70;;;;;;;;;;4538722;28;20886;-57
2021/11/01 05:18:31;;;;;;;1.08;0.60;;;;;;;;;;4537950;28;20372;-56
2021/11/01 05:20:15;;;;;;;2.08;0.88;;;;;;;;;;4511345;28;20520;-57
2021/11/01 05:22:33;;;;;;;2.03;0.70;;;;;;;;;;4537968;28;20553;-56
2021/11/01 05:24:50;;;;;;;2.63;0.90;;;;;;;;;;4538985;28;20037;-57
2021/11/01 05:27:20;;;;;;;1.10;0.60;;;;;;;;;;4539099;28;20029;-57
2021/11/01 05:29:31;;;;;;;2.72;0.90;;;;;;;;;;4537842;28;20037;-56
2021/11/01 05:31:44;;;;;;;1.30;0.73;;;;;;;;;;4538676;28;20044;-56
2021/11/01 05:36:05;;;;;;;1.35;0.50;;;;;;;;;;4520395;28;20116;-58
2021/11/01 05:38:16;;;;;;;2.60;0.87;;;;;;;;;;4538787;28;20743;-58
2021/11/01 05:40:26;;;;;;;1.03;0.70;;;;;;;;;;4538738;28;20272;-58
2021/11/01 05:42:37;;;;;;;2.33;0.87;;;;;;;;;;4537998;28;20029;-58
2021/11/01 05:44:47;;;;;;;1.33;0.60;;;;;;;;;;4537732;28;20095;-60
2021/11/01 05:46:58;;;;;;;2.43;1.00;;;;;;;;;;4538596;28;20033;-59
2021/11/01 05:49:09;;;;;;;2.92;0.80;;;;;;;;;;4538686;28;20045;-59
2021/11/01 05:51:22;;;;;;;2.83;0.67;;;;;;;;;;4520949;28;20033;-59
2021/11/01 05:53:37;;;;;;;2.05;0.65;;;;;;;;;;4535786;28;20921;-59
2021/11/01 05:55:55;;;;;;;2.45;0.65;;;;;;;;;;4538113;28;20029;-58
2021/11/01 06:14:41;;;;;;;1.30;0.50;;;;;;;;;;4538299;28;20043;-59
2021/11/01 06:16:51;;;;;;;2.13;0.73;;;;;;;;;;4538912;28;20043;-59
2021/11/01 06:19:02;;;;;;;1.47;0.73;;;;;;;;;;4502516;28;20533;-59
2021/11/01 06:21:14;;;;;;;2.53;0.83;;;;;;;;;;4520202;28;20034;-59
2021/11/01 06:23:25;;;;;;;1.77;0.73;;;;;;;;;;4536800;28;20687;-59
2021/11/01 06:25:36;;;;;;;2.13;0.73;;;;;;;;;;4537600;28;20111;-59
2021/11/01 06:27:47;;;;;;;1.75;0.65;;;;;;;;;;4536135;28;20206;-59
2021/11/01 06:32:34;;;;;;;2.40;0.70;;;;;;;;;;4536976;28;20045;-58
2021/11/01 06:39:53;;;;;;;1.27;0.60;;;;;;;;;;4536707;28;20029;-58
2021/11/01 06:42:19;;;;;;;1.67;0.60;;;;;;;;;;4521630;28;20132;-59
2021/11/01 07:15:43;;;;;;;1.38;0.70;;;;;;;;;;4536659;28;20696;-59
2021/11/01 07:20:21;;;;;;;0.98;0.50;;;;;;;;;;4533969;28;20041;-59
2021/11/01 07:25:18;;;;;;;3.08;0.70;;;;;;;;;;4519293;28;20164;-59
2021/11/01 08:25:28;;;;;;;2.17;0.60;;;;;;;;;;4524399;28;20041;-59
2021/11/01 08:27:40;;;;;;;1.00;0.50;;;;;;;;;;4527727;28;20044;-59
2021/11/01 08:37:23;;;;;;;2.65;0.70;;;;;;;;;;4538939;28;20029;-59
2021/11/01 08:40:04;;;;;;;3.63;0.60;;;;;;;;;;4524915;28;20029;-59
2021/11/01 08:45:08;;;;;;;1.80;0.60;;;;;;;;;;4538570;28;20220;-59
2021/11/01 09:07:16;;;;;;;1.33;0.52;;;;;;;;;;4519817;28;20726;-59
2021/11/01 09:11:56;;;;;;;1.98;0.80;;;;;;;;;;4535679;28;20037;-59
2021/11/01 09:26:04;;;;;;;2.10;0.63;;;;;;;;;;4538294;28;20068;-59
2021/11/01 09:35:44;;;;;;;1.35;0.60;;;;;;;;;;4539203;28;20040;-59
2021/11/01 09:35:48;;;;;;;2.10;0.70;;;;;;;;;;4537752;28;20803;-59
2021/11/01 09:38:15;;;;;;;1.35;0.60;;;;;;;;;;4538602;28;20566;-59
2021/11/01 09:42:55;;;;;;;2.38;0.75;;;;;;;;;;4539590;28;20040;-59
2021/11/01 09:45:06;;;;;;;1.83;0.45;;;;;;;;;;4519936;28;20026;-58
2021/11/01 09:47:17;;;;;;;1.60;0.40;;;;;;;;;;4537799;28;20187;-60
2021/11/01 09:49:28;;;;;;;2.00;0.40;;;;;;;;;;4521168;28;20615;-59
2021/11/01 09:51:39;;;;;;;1.70;0.60;;;;;;;;;;4538232;28;20056;-57
2021/11/01 09:53:50;;;;;;;1.40;0.50;;;;;;;;;;4519544;28;20040;-57
2021/11/01 10:00:46;;;;;;;2.03;0.80;;;;;;;;;;4523620;28;20033;-58
2021/11/01 10:02:57;;;;;;;0.82;0.50;;;;;;;;;;4520204;28;20029;-60
2021/11/01 10:05:08;;;;;;;2.53;0.70;;;;;;;;;;4538850;28;20032;-58
2021/11/01 10:07:47;;;;;;;1.97;0.43;;;;;;;;;;4538661;28;20064;-58
2021/11/01 10:09:57;;;;;;;1.52;0.50;;;;;;;;;;4537209;28;20140;-61
2021/11/01 10:12:31;;;;;;;2.47;0.70;;;;;;;;;;4498144;28;20074;-59
2021/11/01 10:14:53;;;;;;;1.27;0.60;;;;;;;;;;4537173;28;20037;-59
2021/11/01 10:19:42;;;;;;;1.30;0.50;;;;;;;;;;4537514;28;19923;-59
2021/11/01 10:21:55;;;;;;;1.15;0.47;;;;;;;;;;4536624;28;20037;-59
2021/11/01 10:24:06;;;;;;;1.88;0.65;;;;;;;;;;4519236;28;20125;-59
2021/11/01 10:26:19;;;;;;;1.83;0.60;;;;;;;;;;4537408;28;20588;-59
2021/11/01 10:28:30;;;;;;;1.55;0.57;;;;;;;;;;4536206;28;20037;-59
2021/11/01 10:30:41;;;;;;;1.50;0.60;;;;;;;;;;4536269;28;20029;-59
2021/11/01 10:32:53;;;;;;;2.17;0.60;;;;;;;;;;4506201;28;20054;-59
2021/11/01 10:35:15;;;;;;;1.33;0.60;;;;;;;;;;4536157;28;21247;-59
2021/11/01 10:37:25;;;;;;;2.35;0.65;;;;;;;;;;4517931;28;20219;-57
2021/11/01 10:39:36;;;;;;;2.20;0.63;;;;;;;;;;4535591;28;20471;-58
2021/11/01 10:42:24;;;;;;;1.05;0.57;;;;;;;;;;4518131;28;20053;-58
2021/11/01 10:44:52;;;;;;;1.98;0.73;;;;;;;;;;4538133;28;20029;-57
2021/11/01 10:57:18;;;;;;;0.77;0.50;;;;;;;;;;4521005;28;20083;-59
2021/11/01 11:14:51;;;;;;;3.30;0.60;;;;;;;;;;4535178;28;20037;-58
2021/11/01 11:19:30;;;;;;;1.35;0.60;;;;;;;;;;4537350;28;20843;-58
2021/11/01 11:43:15;;;;;;;1.35;0.50;;;;;;;;;;4535063;28;20040;-58
2021/11/01 11:48:13;;;;;;;1.63;0.43;;;;;;;;;;4535545;28;20560;-58
2021/11/01 11:50:28;;;;;;;0.80;0.40;;;;;;;;;;4536153;28;20040;-58
2021/11/01 11:52:38;;;;;;;1.88;0.57;;;;;;;;;;4534578;28;20041;-58
2021/11/01 11:54:56;;;;;;;2.87;0.47;;;;;;;;;;4533889;28;20033;-58
2021/11/01 11:57:23;;;;;;;0.65;0.45;;;;;;;;;;4535072;28;20104;-58
2021/11/01 11:59:35;;;;;;;0.85;0.40;;;;;;;;;;4512931;28;20033;-58
2021/11/01 12:01:52;;;;;;;1.75;0.57;;;;;;;;;;4519048;28;20042;-58
2021/11/01 12:04:06;;;;;;;1.25;0.40;;;;;;;;;;4536644;28;20025;-58
2021/11/01 12:06:22;;;;;;;1.50;0.60;;;;;;;;;;4537067;28;20132;-58
2021/11/01 12:08:40;;;;;;;2.80;0.50;;;;;;;;;;4535620;28;20055;-58
2021/11/01 12:18:01;;;;;;;0.77;0.50;;;;;;;;;;4534653;28;20033;-58
2021/11/01 12:20:12;;;;;;;1.00;0.40;;;;;;;;;;4535730;28;20041;-58
2021/11/01 12:22:27;;;;;;;1.63;0.50;;;;;;;;;;4536057;28;20044;-58
2021/11/01 12:24:47;;;;;;;2.08;0.50;;;;;;;;;;4536225;28;20725;-58
2021/11/01 12:27:09;;;;;;;0.63;0.40;;;;;;;;;;4536117;28;20033;-58
2021/11/01 12:29:20;;;;;;;1.55;0.57;;;;;;;;;;4535950;28;20192;-58
2021/11/01 12:31:31;;;;;;;0.93;0.40;;;;;;;;;;4518042;28;20049;-58
2021/11/01 12:33:50;;;;;;;1.90;0.40;;;;;;;;;;4536267;28;20041;-58
2021/11/01 12:36:04;;;;;;;1.08;0.50;;;;;;;;;;4500307;28;20029;-58
2021/11/01 12:38:20;;;;;;;0.85;0.50;;;;;;;;;;4536472;28;20068;-58
2021/11/01 12:40:47;;;;;;;1.00;0.50;;;;;;;;;;4518456;28;20061;-58
2021/11/01 12:56:59;;;;;;;1.90;0.50;;;;;;;;;;4538941;28;20033;-58
2021/11/01 12:57:29;;;;;;;1.45;0.45;;;;;;;;;;4538476;28;20080;-58
2021/11/01 12:59:43;;;;;;;2.03;0.50;;;;;;;;;;4538231;28;20064;-58
2021/11/01 13:01:53;;;;;;;1.33;0.50;;;;;;;;;;4537690;28;20177;-58
2021/11/01 13:04:25;;;;;;;2.87;0.80;;;;;;;;;;4538557;28;20184;-58
2021/11/01 13:06:49;;;;;;;2.00;0.57;;;;;;;;;;4538193;28;20084;-58
2021/11/01 13:09:07;;;;;;;0.90;0.43;;;;;;;;;;4520365;28;20073;-59
2021/11/01 13:18:40;;;;;;;1.38;0.52;;;;;;;;;;4535867;28;20107;-59
2021/11/01 13:20:58;;;;;;;1.40;0.50;;;;;;;;;;4537410;28;20095;-59
2021/11/01 13:23:09;;;;;;;0.93;0.43;;;;;;;;;;4535562;28;20033;-59
2021/11/01 13:25:27;;;;;;;0.65;0.40;;;;;;;;;;4537550;28;20111;-59
2021/11/01 13:37:37;;;;;;;1.98;0.70;;;;;;;;;;4520467;28;20033;-58
2021/11/01 13:39:59;;;;;;;2.03;0.65;;;;;;;;;;4520374;28;20045;-59
2021/11/01 13:42:16;;;;;;;1.70;0.47;;;;;;;;;;4513044;28;20030;-59
2021/11/01 13:44:27;;;;;;;0.70;0.40;;;;;;;;;;4539012;28;20032;-59
2021/11/01 13:46:44;;;;;;;0.95;0.50;;;;;;;;;;4537296;28;20033;-57
2021/11/01 13:48:57;;;;;;;1.10;0.50;;;;;;;;;;4536050;28;20116;-59
2021/11/01 13:51:10;;;;;;;1.20;0.40;;;;;;;;;;4535670;28;20031;-58
2021/11/01 13:53:23;;;;;;;2.03;0.40;;;;;;;;;;4517798;28;20045;-59
2021/11/01 13:58:06;;;;;;;1.27;0.30;;;;;;;;;;4520975;28;20088;-58
2021/11/01 14:17:03;;;;;;;0.95;0.50;;;;;;;;;;4537689;28;20532;-59
2021/11/01 14:19:33;;;;;;;1.45;0.60;;;;;;;;;;4535866;28;20648;-59
2021/11/01 14:58:25;;;;;;;0.70;0.40;;;;;;;;;;4537687;28;20037;-61
2021/11/01 15:08:39;;;;;;;1.50;0.40;;;;;;;;;;4459059;28;20540;-61
2021/11/01 16:19:42;;;;;;;1.10;0.68;;;;;;;;;;4537185;28;20029;-58
2021/11/01 16:21:53;;;;;;;2.15;1.30;;;;;;;;;;4539779;28;20129;-58
2021/11/01 16:24:04;;;;;;;2.40;1.00;;;;;;;;;;4538783;28;20196;-58
2021/11/01 16:26:25;;;;;;;1.80;0.80;;;;;;;;;;4520403;28;20085;-58
2021/11/01 16:28:35;;;;;;;1.48;0.70;;;;;;;;;;4523229;28;21061;-59
2021/11/01 16:30:55;;;;;;;1.70;0.80;;;;;;;;;;4521310;28;20084;-61
2021/11/01 16:33:08;;;;;;;1.83;1.43;;;;;;;;;;4523685;28;20667;-58
2021/11/01 16:35:21;;;;;;;;;;;;;;;;;;4539546;28;20029;-58
2021/11/01 16:40:06;;;;;;;1.40;0.98;;;;;;;;;;4539403;28;20124;-59
2021/11/01 16:42:19;;;;;;;1.20;1.00;;;;;;;;;;4497950;28;20041;-59
2021/11/01 16:44:32;;;;;;;2.40;1.13;;;;;;;;;;4537982;28;20025;-58
2021/11/01 16:46:48;;;;;;;2.15;1.20;;;;;;;;;;4521805;28;20157;-58
2021/11/01 16:49:00;;;;;;;1.63;1.10;;;;;;;;;;4498311;28;20097;-58
2021/11/01 16:51:11;;;;;;;2.60;1.20;;;;;;;;;;4539456;28;20096;-58
2021/11/01 16:53:22;;;;;;;1.67;1.20;;;;;;;;;;4538680;28;20576;-58
2021/11/01 16:55:35;;;;;;;1.33;0.90;;;;;;;;;;4538894;28;20041;-59
2021/11/01 16:57:53;;;;;;;1.83;0.88;;;;;;;;;;4539855;28;20040;-59
2021/11/01 17:00:23;;;;;;;1.35;0.60;;;;;;;;;;4538760;28;20037;-58
2021/11/01 17:05:33;;;;;;;1.35;0.70;;;;;;;;;;4522403;28;20037;-59
2021/11/01 17:22:04;;;;;;;1.52;0.90;;;;;;;;;;4538981;28;20060;-57
2021/11/01 17:26:34;;;;;;;1.37;0.60;;;;;;;;;;4539546;28;20115;-58
2021/11/01 17:34:39;;;;;;;1.90;1.10;;;;;;;;;;4500168;28;20056;-58
2021/11/01 18:36:16;;;;;;;1.80;1.07;;;;;;;;;;4527601;28;20537;-57
2021/11/01 18:51:35;;;;;;;1.98;1.08;;;;;;;;;;4534462;28;20032;-56
2021/11/01 18:54:16;;;;;;;2.28;1.10;;;;;;;;;;4516612;28;20522;-58
2021/11/01 18:56:34;;;;;;;1.93;1.13;;;;;;;;;;4517645;28;20084;-58
2021/11/01 18:58:44;;;;;;;1.55;1.00;;;;;;;;;;4535649;28;20049;-58
2021/11/01 19:00:57;;;;;;;2.03;1.00;;;;;;;;;;4533194;28;20844;-57
2021/11/01 19:03:08;;;;;;;2.47;1.30;;;;;;;;;;4533718;28;20029;-58
2021/11/01 19:05:23;;;;;;;0.95;0.77;;;;;;;;;;4533992;28;20160;-57
2021/11/01 19:07:46;;;;;;;1.55;1.00;;;;;;;;;;4515817;28;20072;-58
2021/11/01 20:10:21;;;;;;;0.93;0.60;;;;;;;;;;4538407;28;20040;-56
2021/11/01 20:12:45;;;;;;;1.10;0.50;;;;;;;;;;4538591;28;20041;-56
2021/11/01 20:15:11;;;;;;;1.23;0.70;;;;;;;;;;4539793;28;20025;-56
2021/11/01 21:25:23;;;;;;;1.08;0.68;;;;;;;;;;4521816;28;20033;-58
2021/11/01 21:27:33;;;;;;;1.00;0.50;;;;;;;;;;4537534;28;20087;-57
2021/11/01 21:29:44;;;;;;;1.30;0.50;;;;;;;;;;4519320;28;20104;-57
2021/11/01 21:31:55;;;;;;;1.80;0.70;;;;;;;;;;4534285;28;20476;-58
2021/11/01 21:34:07;;;;;;;2.07;0.67;;;;;;;;;;4517805;28;20042;-57
2021/11/01 21:36:24;;;;;;;1.75;0.50;;;;;;;;;;4535080;28;20040;-58
2021/11/01 21:38:35;;;;;;;1.33;0.60;;;;;;;;;;4517986;28;20107;-58
2021/11/01 21:40:47;;;;;;;0.95;0.70;;;;;;;;;;4535363;28;20087;-58
2021/11/01 21:42:58;;;;;;;0.80;0.60;;;;;;;;;;4517880;28;20132;-57
2021/11/01 21:45:09;;;;;;;1.30;0.70;;;;;;;;;;4534340;28;28192;-58
2021/11/01 21:47:21;;;;;;;1.00;0.63;;;;;;;;;;4536554;28;20036;-58
2021/11/01 21:49:32;;;;;;;1.03;0.80;;;;;;;;;;4536263;28;20568;-57
2021/11/01 21:51:43;;;;;;;1.37;0.73;;;;;;;;;;4534940;28;20083;-57
2021/11/01 21:54:11;;;;;;;1.55;0.77;;;;;;;;;;4536754;28;20658;-58
2021/11/01 21:56:21;;;;;;;1.48;0.80;;;;;;;;;;4536536;28;20096;-57
2021/11/01 22:01:05;;;;;;;1.77;0.77;;;;;;;;;;4536777;28;20604;-57
2021/11/01 22:18:04;;;;;;;1.25;0.60;;;;;;;;;;4535274;28;20029;-57
2021/11/01 22:20:19;;;;;;;;;;;;;;;;;;4536871;28;20041;-58
2021/11/01 22:39:55;;;;;;;1.05;0.70;;;;;;;;;;4536252;28;20048;-58
2021/11/01 22:44:38;;;;;;;0.88;0.55;;;;;;;;;;4536519;28;20040;-57
2021/11/01 22:47:24;;;;;;;1.10;0.80;;;;;;;;;;4534733;28;20059;-58
2021/11/01 22:57:22;;;;;;;0.93;0.50;;;;;;;;;;4522955;28;20041;-58
2021/11/01 22:59:32;;;;;;;0.90;0.60;;;;;;;;;;4535806;28;21136;-60
2021/11/01 23:01:46;;;;;;;1.10;0.50;;;;;;;;;;4534876;28;20091;-58
2021/11/01 23:04:25;;;;;;;1.27;0.60;;;;;;;;;;4517720;28;20572;-58
2021/11/01 23:31:38;;;;;;;0.82;0.50;;;;;;;;;;4534447;28;20103;-57
2021/11/01 23:33:49;;;;;;;1.08;0.60;;;;;;;;;;4534715;28;20083;-57
2021/11/01 23:36:00;;;;;;;1.85;0.70;;;;;;;;;;4517556;28;20049;-57
2021/11/01 23:38:12;;;;;;;1.08;0.50;;;;;;;;;;4515510;28;20030;-57
2021/11/01 23:40:22;;;;;;;1.70;0.60;;;;;;;;;;4534687;28;20033;-57
2021/11/01 23:42:33;;;;;;;0.60;0.40;;;;;;;;;;4531965;28;20029;-57
2021/11/01 23:44:43;;;;;;;1.57;0.63;;;;;;;;;;4534343;28;20037;-57
2021/11/01 23:46:54;;;;;;;1.30;0.57;;;;;;;;;;4535060;28;20065;-57
2021/11/01 23:49:05;;;;;;;1.83;0.70;;;;;;;;;;4534173;28;20477;-58
2021/11/01 23:51:18;;;;;;;2.15;0.80;;;;;;;;;;4500120;28;20026;-57
2021/11/01 23:53:38;;;;;;;1.20;0.77;;;;;;;;;;4534017;28;20045;-57
2021/11/01 23:55:50;;;;;;;1.23;0.60;;;;;;;;;;4533758;28;20879;-57
2021/11/01 23:58:04;;;;;;;1.13;0.50;;;;;;;;;;4534019;28;20131;-58
